Etusivu
METAR-TAF:

METAR-TAF

Lentoasemat :

New Braunfels Municipal Airport

New Braunfels, Texas, Yhdysvallat

Leveyspiiri: 29-42-31N, Pituuspiiri: 098-02-43W, korkeus merenpinnasta: 197 m

Tämänhetkinen sää

Tämä raportti tehtiin 16 minuuttia sitten, kello 01.51 UTC
tyyntä
Lämpötila 21°C
Kosteus 60%
Ilmanpaine 1007 hPa
Näkyvyys: 16.1 km
selkeää

METAR: KBAZ 190151Z AUTO 00000KT 10SM CLR 21/13 A2974 RMK AO2 SLP065 T02060133

Aika: 21:07 (02:07 UTC)


TAF: puuttuu

Säähavainnot ja -ennusteet yli 4000 lentoasemalta (METAR- ja TAF-raportit).

Käytössä olevat sääasemat on merkitty karttaan keltaisilla ja punaisilla pisteillä.

Aseta hiiri pisteen päälle nähdäksesi sääaseman nimen.

Klikkaa sitten nähdäksesi säähavainnot ja -ennusteet.

Kartan vaihtaminen: klikkaa mustalla rastilla varustettuja vihreitä pisteitä, niin voit zoomata sisään; viivalla varustettua vihreää pistettä, niin voit zoomata ulos tai vihreitä nuolia, niin pääset viereisille kartoille.


METAR-TAF: